createdAt,value
2024-05-09T00:07:02.919Z,0
2024-05-09T00:17:10.583Z,0
2024-05-09T00:27:17.603Z,0
2024-05-09T00:37:24.672Z,0
2024-05-09T00:47:32.794Z,0
2024-05-09T00:57:39.827Z,0
2024-05-09T01:07:47.212Z,0
2024-05-09T01:17:55.534Z,0
2024-05-09T01:28:03.922Z,0
2024-05-09T01:38:11.467Z,0
2024-05-09T01:48:19.226Z,0
2024-05-09T01:58:26.216Z,0
2024-05-09T02:08:34.324Z,0
2024-05-09T02:18:42.474Z,0
2024-05-09T02:28:50.118Z,0
2024-05-09T02:38:57.320Z,0
2024-05-09T02:49:05.102Z,0
2024-05-09T02:59:12.952Z,0
2024-05-09T03:09:20.596Z,0.83
2024-05-09T03:19:27.840Z,5.83
2024-05-09T03:29:35.681Z,17.5
2024-05-09T03:39:42.813Z,39.17
2024-05-09T03:49:50.185Z,70
2024-05-09T03:59:57.389Z,106.67
2024-05-09T04:10:34.738Z,142.5
2024-05-09T04:20:42.525Z,175.83
2024-05-09T04:30:50.657Z,202.5
2024-05-09T04:40:58.764Z,224.17
2024-05-09T04:51:07.129Z,244.17
2024-05-09T05:01:14.682Z,271.67
2024-05-09T05:11:22.291Z,275
2024-05-09T05:21:29.935Z,283.33
2024-05-09T05:31:38.714Z,294.17
2024-05-09T05:41:46.179Z,300.83
2024-05-09T05:51:53.283Z,316.67
2024-05-09T06:02:01.175Z,334.17
2024-05-09T06:12:09.714Z,354.17
2024-05-09T06:22:17.293Z,359.17
2024-05-09T06:32:25.597Z,358.33
2024-05-09T06:42:33.097Z,363.33
2024-05-09T06:52:40.001Z,380.83
2024-05-09T07:02:48.041Z,386.67
2024-05-09T07:12:56.036Z,389.17
2024-05-09T07:23:04.135Z,400
2024-05-09T07:33:13.343Z,405
2024-05-09T07:43:21.507Z,408.33
2024-05-09T07:53:54.860Z,419.17
2024-05-09T08:04:09.182Z,430
2024-05-09T08:14:17.227Z,440.83
2024-05-09T08:24:24.826Z,452.5
2024-05-09T08:34:33.178Z,468.33
2024-05-09T08:44:40.689Z,492.5
2024-05-09T08:54:48.328Z,525
2024-05-09T09:04:56.635Z,550
2024-05-09T09:15:04.264Z,578.33
2024-05-09T09:25:12.214Z,600
2024-05-09T09:35:20.038Z,609.17
2024-05-09T09:45:27.988Z,658.33
2024-05-09T09:55:35.928Z,673.33
2024-05-09T10:05:48.529Z,720.83
2024-05-09T10:15:56.803Z,769.17
2024-05-09T10:26:04.502Z,845.83
2024-05-09T10:36:12.776Z,945.83
2024-05-09T10:46:22.114Z,963.33
2024-05-09T10:56:29.933Z,1110
2024-05-09T11:06:37.963Z,1095
2024-05-09T11:16:45.817Z,1231.67
2024-05-09T11:26:53.388Z,1469.17
2024-05-09T11:37:01.802Z,1833.33
2024-05-09T11:47:10.407Z,2664.17
2024-05-09T11:57:18.565Z,3390
2024-05-09T12:07:27.039Z,9300
2024-05-09T12:17:35.839Z,17812.5
2024-05-09T12:27:45.595Z,20005.83
2024-05-09T12:37:54.884Z,20070.83
2024-05-09T12:48:04.482Z,19689.17
2024-05-09T12:58:14.362Z,19916.67
2024-05-09T13:08:22.849Z,17063.33
2024-05-09T13:18:31.092Z,18562.5
2024-05-09T13:28:40.664Z,1844.17
2024-05-09T13:38:45.720Z,3924.17
2024-05-09T13:48:52.952Z,16346.67
2024-05-09T13:59:02.639Z,10661.67
2024-05-09T14:09:11.387Z,2096.67
2024-05-09T14:19:18.634Z,2112.5
2024-05-09T14:29:25.752Z,13638.33
2024-05-09T14:39:35.195Z,2575.83
2024-05-09T14:49:43.973Z,10566.67
2024-05-09T14:59:52.103Z,2627.5
2024-05-09T15:10:00.984Z,11228.33
2024-05-09T15:20:31.562Z,7656.67
2024-05-09T15:30:48.292Z,7052.5
2024-05-09T15:40:56.493Z,6559.17
2024-05-09T15:51:05.261Z,6660
2024-05-09T16:01:14.315Z,7641.67
2024-05-09T16:11:23.001Z,6402.5
2024-05-09T16:21:31.310Z,5295
2024-05-09T16:31:39.133Z,5293.33
2024-05-09T16:41:46.354Z,806.67
2024-05-09T16:51:51.856Z,617.5
2024-05-09T17:01:59.664Z,595.83
2024-05-09T17:12:06.585Z,623.33
2024-05-09T17:22:14.819Z,648.33
2024-05-09T17:32:22.548Z,472.5
2024-05-09T17:42:29.632Z,774.17
2024-05-09T17:52:37.674Z,736.67
2024-05-09T18:02:45.439Z,640.83
2024-05-09T18:12:53.011Z,300.83
2024-05-09T18:23:00.478Z,133.33
2024-05-09T18:33:10.559Z,77.5
2024-05-09T18:43:44.759Z,45
2024-05-09T18:53:57.685Z,19.17
2024-05-09T19:04:06.082Z,8.33
2024-05-09T19:14:13.935Z,2.5
2024-05-09T19:24:20.902Z,0.83
2024-05-09T19:34:28.468Z,0
2024-05-09T19:44:36.163Z,0
2024-05-09T19:54:44.871Z,0
2024-05-09T20:04:52.772Z,0
2024-05-09T20:15:00.543Z,0
2024-05-09T20:25:09.006Z,0
2024-05-09T20:35:16.638Z,0
2024-05-09T20:45:23.971Z,0
2024-05-09T20:55:31.951Z,0
2024-05-09T21:05:41.099Z,0
2024-05-09T21:15:50.280Z,0
2024-05-09T21:25:57.818Z,0
2024-05-09T21:36:05.824Z,0
2024-05-09T21:46:13.096Z,0
2024-05-09T21:56:20.637Z,0
2024-05-09T22:06:27.678Z,0
2024-05-09T22:16:34.932Z,0
2024-05-09T22:26:42.458Z,0
2024-05-09T22:36:50.120Z,0
2024-05-09T22:46:57.607Z,0
2024-05-09T22:57:04.700Z,0
2024-05-09T23:07:12.338Z,0
2024-05-09T23:17:20.608Z,0
2024-05-09T23:27:28.044Z,0
2024-05-09T23:37:35.251Z,0
2024-05-09T23:47:43.342Z,0
2024-05-09T23:57:50.773Z,0
